Estación Meteorológica Peña el Pijo (Robertgarden) [ 07/20/18 16:47:13 CEST ]

Fecha Hora Presion(HPa) Temp (°C) Humedad % Rocio (°C) Viento ( m/s) Direccion Lluvia 1Hora(mm) Lluvia 24H(mm) LLuvia Total(mm)
2018-May-10 01:01:47 1004.400 14.9 74 10.3         205.64
2018-May-10 02:01:31 1004.600 14.9 73 10.1         205.64
2018-May-10 03:01:42 1004.200 14.1 74 9.5 0.5 WNW     205.64
2018-May-10 04:05:28 1004.200 13.6 75 9.2         205.64
2018-May-10 05:01:48 1004.500 13.0 76 8.8         205.64
2018-May-10 06:01:57 1004.200 11.4 78 7.7         205.64
2018-May-10 07:01:50 1005.000 10.8 81 7.7         205.64
2018-May-10 08:01:46 1005.600 11.1 82 8.1         205.64
2018-May-10 09:01:56 1005.900 14.3 81 11.1         205.64
2018-May-10 10:01:42 1006.300 17.2 69 11.5         205.64
2018-May-10 11:01:49 1006.300 19.4 60 11.5         205.64
2018-May-10 12:01:58 1006.200 24.9 46 12.4         205.64
2018-May-10 13:01:44 1006.100 23.0 43 9.7         205.64
2018-May-10 14:01:42 1005.500 21.8 44 8.9         205.64
2018-May-10 15:01:59 1006.200 17.2 63 10.1         205.64
2018-May-10 16:01:49 1006.600 13.1 80 9.7     6.21 6.73 212.38
2018-May-10 17:01:54 1007.600 12.8 83 9.9     2.59 9.32 214.97
2018-May-10 18:01:37 1007.400 15.4 84 12.7       9.32 214.97
2018-May-10 19:01:46 1007.200 17.0 77 12.9       9.32 214.97
2018-May-10 20:02:02 1007.700 16.8 73 11.9       9.32 214.97
2018-May-10 21:01:50 1008.200 14.3 77 10.3       9.32 214.97
2018-May-10 22:01:47 1009.500 12.3 81 9.1       9.32 214.97
2018-May-10 23:01:51 1010.100 12.5 84 9.8       9.32 214.97

Temperatura Máxima:24°    Temperatura Mínima:10°
Presión Máxima:1010.100 Hpa    Presión Mínima:1004.200 Hpa


Volver